Time;durP1;ratioP1;P1;durP2;ratioP2;P2;SDS_P1;SDS_P2;PMS_P1;PMS_P2;Temp;Humidity;BMP_temperature;BMP_pressure;BME280_temperature;BME280_humidity;BME280_pressure;Samples;Min_cycle;Max_cycle;Signal;HPM_P1;HPM_P2
2021/06/14 00:01:51;;;;;;;5.22;2.15;;;18.80;61.20;;;;;;5031821;28;20037;-85
2021/06/14 00:04:17;;;;;;;5.50;2.50;;;18.80;61.30;;;;;;5016194;28;20037;-86
2021/06/14 00:06:43;;;;;;;6.78;2.50;;;18.70;61.50;;;;;;5031876;28;20389;-86
2021/06/14 00:09:10;;;;;;;8.55;2.67;;;18.70;61.70;;;;;;5032814;28;20099;-86
2021/06/14 00:11:36;;;;;;;8.02;2.67;;;18.70;61.80;;;;;;5018345;28;20022;-86
2021/06/14 00:14:02;;;;;;;7.65;2.58;;;18.60;62.10;;;;;;5031886;28;20116;-85
2021/06/14 00:16:28;;;;;;;6.75;2.97;;;18.60;62.60;;;;;;5019273;28;20029;-88
2021/06/14 00:18:54;;;;;;;9.00;3.05;;;18.60;62.90;;;;;;5031345;28;20128;-86
2021/06/14 00:21:20;;;;;;;4.60;2.13;;;18.50;63.20;;;;;;5015582;28;20125;-86
2021/06/14 00:23:46;;;;;;;6.80;2.92;;;18.50;63.60;;;;;;5015761;28;20026;-87
2021/06/14 00:26:14;;;;;;;6.15;2.53;;;18.40;63.70;;;;;;5016081;28;20446;-87
2021/06/14 00:28:40;;;;;;;6.63;3.25;;;18.40;64.60;;;;;;5043309;28;20063;-90
2021/06/14 00:31:08;;;;;;;7.03;2.35;;;18.30;64.20;;;;;;5054182;28;20435;-90
2021/06/14 00:33:35;;;;;;;6.07;2.42;;;18.30;64.50;;;;;;5056710;28;20058;-89
2021/06/14 00:36:00;;;;;;;7.22;2.58;;;18.10;64.80;;;;;;5040126;28;20032;-90
2021/06/14 00:38:26;;;;;;;5.05;2.38;;;18.20;65.10;;;;;;5056418;28;20033;-89
2021/06/14 00:40:52;;;;;;;7.18;2.70;;;18.10;65.40;;;;;;5039437;28;20029;-90
2021/06/14 00:43:18;;;;;;;6.25;2.78;;;18.10;65.60;;;;;;5056311;28;20029;-87
2021/06/14 00:45:49;;;;;;;7.60;2.13;;;18.10;65.70;;;;;;5038762;28;20056;-89
2021/06/14 00:48:15;;;;;;;6.65;2.45;;;18.00;65.80;;;;;;5072879;28;20079;-90
2021/06/14 00:50:47;;;;;;;7.72;2.53;;;18.00;65.90;;;;;;5056558;28;20033;-89
2021/06/14 00:53:21;;;;;;;5.93;2.55;;;17.90;66.10;;;;;;5055376;28;20457;-85
2021/06/14 00:55:47;;;;;;;11.40;3.50;;;17.90;66.10;;;;;;5055421;28;20469;-86
2021/06/14 00:58:14;;;;;;;8.30;2.83;;;17.90;66.30;;;;;;5039137;28;20029;-88
2021/06/14 01:00:40;;;;;;;7.03;2.92;;;17.80;66.40;;;;;;5055538;28;20025;-87
2021/06/14 01:03:06;;;;;;;5.35;2.50;;;17.80;66.60;;;;;;5036337;28;20029;-88
2021/06/14 01:05:41;;;;;;;10.60;2.97;;;17.80;66.70;;;;;;5055664;28;20071;-88
2021/06/14 01:08:08;;;;;;;9.30;3.22;;;17.70;66.90;;;;;;5055814;28;20437;-86
2021/06/14 01:10:38;;;;;;;8.18;2.55;;;17.70;67.00;;;;;;5055218;28;20487;-88
2021/06/14 01:13:27;;;;;;;7.78;2.90;;;17.60;67.10;;;;;;5055275;28;20021;-87
2021/06/14 01:16:20;;;;;;;8.55;3.00;;;17.60;67.40;;;;;;5055146;28;20025;-87
2021/06/14 01:18:52;;;;;;;6.18;2.97;;;17.60;67.40;;;;;;5052171;28;20483;-86
2021/06/14 01:21:29;;;;;;;8.25;3.05;;;17.50;67.60;;;;;;5055870;28;20108;-88
2021/06/14 01:24:08;;;;;;;8.70;3.03;;;17.50;67.90;;;;;;5055234;28;20025;-87
2021/06/14 01:26:44;;;;;;;6.22;2.75;;;17.50;68.10;;;;;;5056449;28;20029;-88
2021/06/14 01:29:11;;;;;;;10.95;2.58;;;17.40;68.00;;;;;;5037348;28;20046;-87
2021/06/14 01:31:38;;;;;;;6.43;2.80;;;17.40;68.00;;;;;;5034931;28;20113;-88
2021/06/14 01:34:06;;;;;;;9.20;3.63;;;17.40;68.10;;;;;;5018326;28;20083;-87
2021/06/14 01:36:37;;;;;;;10.00;3.00;;;17.30;68.00;;;;;;5035864;28;20510;-87
2021/06/14 01:39:05;;;;;;;8.27;3.50;;;17.30;68.10;;;;;;5034689;28;20025;-89
2021/06/14 01:41:35;;;;;;;7.82;3.05;;;17.30;68.20;;;;;;5019126;28;20033;-87
2021/06/14 01:44:03;;;;;;;11.07;3.80;;;17.30;68.30;;;;;;5036971;28;20122;-87
2021/06/14 01:46:34;;;;;;;7.50;2.67;;;17.20;68.30;;;;;;5055242;28;20036;-85
2021/06/14 01:49:00;;;;;;;9.05;3.45;;;17.20;68.40;;;;;;5056195;28;20068;-86
2021/06/14 01:51:30;;;;;;;8.70;3.03;;;17.10;68.60;;;;;;5037701;28;20162;-86
2021/06/14 01:54:06;;;;;;;7.88;3.15;;;17.10;68.80;;;;;;5054777;28;20083;-87
2021/06/14 01:56:46;;;;;;;5.90;2.83;;;17.10;68.90;;;;;;5054593;28;20029;-87
2021/06/14 01:59:43;;;;;;;11.60;3.97;;;17.10;69.00;;;;;;5054848;28;20029;-88
2021/06/14 02:02:09;;;;;;;8.52;3.35;;;17.10;69.20;;;;;;5046584;28;20045;-88
2021/06/14 02:04:37;;;;;;;8.55;3.58;;;17.00;69.10;;;;;;5055624;28;20060;-88
2021/06/14 02:07:04;;;;;;;8.13;3.47;;;17.00;69.20;;;;;;5072477;28;20055;-88
2021/06/14 02:09:31;;;;;;;8.30;2.92;;;17.00;69.30;;;;;;5063316;28;20465;-88
2021/06/14 02:12:00;;;;;;;9.27;3.63;;;17.00;69.30;;;;;;5037477;28;20131;-87
2021/06/14 02:14:30;;;;;;;10.48;3.60;;;16.90;69.20;;;;;;5055696;28;20029;-86
2021/06/14 02:17:00;;;;;;;8.68;3.88;;;16.90;69.30;;;;;;5055131;28;20119;-85
2021/06/14 02:19:25;;;;;;;9.02;4.07;;;16.90;69.30;;;;;;5066070;28;20026;-86
2021/06/14 02:21:51;;;;;;;11.27;4.18;;;16.90;69.40;;;;;;5017347;28;20401;-85
2021/06/14 02:24:18;;;;;;;7.55;3.50;;;16.80;69.70;;;;;;5016794;28;20025;-85
2021/06/14 02:26:45;;;;;;;7.03;3.63;;;16.80;69.60;;;;;;5033441;28;20025;-85
2021/06/14 02:29:11;;;;;;;9.10;3.78;;;16.80;69.80;;;;;;5033621;28;20049;-85
2021/06/14 02:31:37;;;;;;;8.93;3.67;;;16.80;69.80;;;;;;5033529;28;20018;-85
2021/06/14 02:34:05;;;;;;;9.05;4.38;;;16.70;70.00;;;;;;5033658;28;20040;-85
2021/06/14 02:36:32;;;;;;;9.05;4.47;;;16.70;70.20;;;;;;5032655;28;20029;-84
2021/06/14 02:39:02;;;;;;;10.43;4.22;;;16.70;70.40;;;;;;5033247;28;20053;-86
2021/06/14 02:41:28;;;;;;;10.43;4.55;;;16.60;70.60;;;;;;5034083;28;20055;-83
2021/06/14 02:43:55;;;;;;;10.70;4.05;;;16.60;70.90;;;;;;5034096;28;20036;-86
2021/06/14 02:46:22;;;;;;;8.55;3.72;;;16.60;71.20;;;;;;5021397;28;20026;-85
2021/06/14 02:48:49;;;;;;;8.68;4.63;;;16.60;71.60;;;;;;5032235;28;20041;-84
2021/06/14 02:51:18;;;;;;;11.55;4.53;;;16.50;71.70;;;;;;5033035;28;20061;-84
2021/06/14 02:53:45;;;;;;;8.85;4.20;;;16.50;72.00;;;;;;5032040;28;20124;-84
2021/06/14 02:56:18;;;;;;;9.45;4.40;;;16.50;72.10;;;;;;5033518;28;20384;-83
2021/06/14 02:58:46;;;;;;;9.57;3.67;;;16.40;72.30;;;;;;5033096;28;20033;-86
2021/06/14 03:01:12;;;;;;;8.02;4.53;;;16.40;72.60;;;;;;5048915;28;20063;-85
2021/06/14 03:03:42;;;;;;;10.35;4.70;;;16.30;72.70;;;;;;5052864;28;20031;-85
2021/06/14 03:06:17;;;;;;;10.48;4.47;;;16.30;72.90;;;;;;5052028;28;20489;-85
2021/06/14 03:08:44;;;;;;;10.93;4.30;;;16.30;73.10;;;;;;5052643;28;20136;-87
2021/06/14 03:11:10;;;;;;;9.63;4.32;;;16.30;73.10;;;;;;5052137;28;20044;-87
2021/06/14 03:13:36;;;;;;;11.60;5.20;;;16.30;73.40;;;;;;5035686;28;20025;-86
2021/06/14 03:16:02;;;;;;;11.63;5.07;;;16.20;73.50;;;;;;5035182;28;20032;-85
2021/06/14 03:18:29;;;;;;;11.45;5.63;;;16.20;73.90;;;;;;5032294;28;20025;-86
2021/06/14 03:20:57;;;;;;;13.02;5.78;;;16.20;74.10;;;;;;5015924;28;20443;-85
2021/06/14 03:23:23;;;;;;;11.15;5.68;;;16.20;74.10;;;;;;5032586;28;20025;-85
2021/06/14 03:25:50;;;;;;;12.98;5.63;;;16.20;74.30;;;;;;5032959;28;20433;-86
2021/06/14 03:28:16;;;;;;;9.65;5.50;;;16.20;74.50;;;;;;5016409;28;20048;-85
2021/06/14 03:30:43;;;;;;;11.63;6.47;;;16.20;74.50;;;;;;5032449;28;20370;-85
2021/06/14 03:33:10;;;;;;;11.05;5.50;;;16.10;75.30;;;;;;5035873;28;20033;-85
2021/06/14 03:35:36;;;;;;;13.65;6.38;;;16.10;74.70;;;;;;5032525;28;20025;-84
2021/06/14 03:38:03;;;;;;;11.25;5.93;;;16.10;74.80;;;;;;5033977;28;20037;-85
2021/06/14 03:40:29;;;;;;;16.80;6.18;;;16.10;74.80;;;;;;5032912;28;20037;-84
2021/06/14 03:43:03;;;;;;;13.73;5.95;;;16.10;74.80;;;;;;5031759;28;20037;-85
2021/06/14 03:45:29;;;;;;;13.52;5.95;;;16.10;74.90;;;;;;5032356;28;20077;-85
2021/06/14 03:47:56;;;;;;;10.88;6.40;;;16.10;74.80;;;;;;5032107;28;20041;-84
2021/06/14 03:50:22;;;;;;;12.85;6.82;;;16.10;74.90;;;;;;5037479;28;20104;-84
2021/06/14 03:52:47;;;;;;;10.48;5.43;;;16.10;75.00;;;;;;5015465;28;20033;-85
2021/06/14 03:55:13;;;;;;;14.88;5.82;;;16.10;75.00;;;;;;5032256;28;20052;-84
2021/06/14 03:57:40;;;;;;;11.63;5.47;;;16.00;75.00;;;;;;5015709;28;20030;-84
2021/06/14 04:00:11;;;;;;;15.23;5.88;;;16.00;75.10;;;;;;5015372;28;20025;-84
2021/06/14 04:02:37;;;;;;;10.50;6.25;;;16.00;75.20;;;;;;5049559;28;20040;-83
2021/06/14 04:05:05;;;;;;;10.40;5.68;;;16.10;75.20;;;;;;5051156;28;20109;-84
2021/06/14 04:07:31;;;;;;;13.70;6.70;;;16.10;75.20;;;;;;5054651;28;20033;-84
2021/06/14 04:09:59;;;;;;;10.70;6.10;;;16.10;75.30;;;;;;5039351;28;20029;-85
2021/06/14 04:12:26;;;;;;;12.75;6.07;;;16.10;75.40;;;;;;5039468;28;20435;-85
2021/06/14 04:14:52;;;;;;;16.52;5.68;;;16.10;75.60;;;;;;5055657;28;20064;-86
2021/06/14 04:17:18;;;;;;;13.27;5.88;;;16.10;75.80;;;;;;5055555;28;20441;-88
2021/06/14 04:19:46;;;;;;;14.63;6.18;;;16.10;76.00;;;;;;5056673;28;20055;-90
2021/06/14 04:22:12;;;;;;;13.23;6.22;;;16.10;76.30;;;;;;5054872;28;20037;-88
2021/06/14 04:24:37;;;;;;;14.00;5.93;;;16.10;76.50;;;;;;5056613;28;20451;-88
2021/06/14 04:27:03;;;;;;;12.77;6.28;;;16.10;76.60;;;;;;5041254;28;20025;-89
2021/06/14 04:29:29;;;;;;;12.57;5.57;;;16.10;76.80;;;;;;5051896;28;20063;-89
2021/06/14 04:31:59;;;;;;;13.40;6.60;;;16.10;77.00;;;;;;5044627;28;20032;-84
2021/06/14 04:34:26;;;;;;;14.75;5.88;;;16.20;77.10;;;;;;5056273;28;20029;-84
2021/06/14 04:36:52;;;;;;;11.82;5.93;;;16.20;77.20;;;;;;5038843;28;20025;-84
2021/06/14 04:39:18;;;;;;;12.15;6.28;;;16.20;77.20;;;;;;5055323;28;20037;-86
2021/06/14 04:41:46;;;;;;;11.05;6.47;;;16.30;77.20;;;;;;5037046;28;20029;-84
2021/06/14 04:44:12;;;;;;;13.32;5.53;;;16.30;77.30;;;;;;5055708;28;20049;-87
2021/06/14 04:46:38;;;;;;;12.90;6.57;;;16.40;77.40;;;;;;5056768;28;20413;-85
2021/06/14 04:49:05;;;;;;;15.90;6.80;;;16.30;77.50;;;;;;5055466;28;20065;-85
2021/06/14 04:51:30;;;;;;;14.20;6.53;;;16.40;77.50;;;;;;5054792;28;20033;-85
2021/06/14 04:53:56;;;;;;;13.23;6.80;;;16.50;77.50;;;;;;5038743;28;20039;-86
2021/06/14 04:56:22;;;;;;;15.98;6.10;;;16.40;77.50;;;;;;5034734;28;20033;-86
2021/06/14 04:58:48;;;;;;;13.75;6.15;;;16.50;77.40;;;;;;5037541;28;20049;-87
2021/06/14 05:01:13;;;;;;;15.50;6.65;;;16.50;77.00;;;;;;5019367;28;20095;-86
2021/06/14 05:03:39;;;;;;;12.15;6.45;;;16.60;76.70;;;;;;5018788;28;20079;-86
2021/06/14 05:06:07;;;;;;;9.77;5.55;;;16.60;76.40;;;;;;5035200;28;20041;-87
2021/06/14 05:08:34;;;;;;;9.48;5.60;;;16.60;76.00;;;;;;5036143;28;20034;-87
2021/06/14 05:11:00;;;;;;;14.18;6.07;;;16.70;75.60;;;;;;5034867;28;20028;-86
2021/06/14 05:13:26;;;;;;;11.65;5.50;;;16.70;75.30;;;;;;5040467;28;20029;-85
2021/06/14 05:15:52;;;;;;;11.05;5.20;;;16.70;75.00;;;;;;5036993;28;20030;-87
2021/06/14 05:18:18;;;;;;;12.52;5.97;;;16.80;74.60;;;;;;5044660;28;20476;-86
2021/06/14 05:20:44;;;;;;;9.70;5.25;;;16.80;74.40;;;;;;5038109;28;20029;-85
2021/06/14 05:23:09;;;;;;;11.90;5.35;;;16.90;74.20;;;;;;5055341;28;20392;-85
2021/06/14 05:25:36;;;;;;;10.77;5.57;;;16.90;73.80;;;;;;5046194;28;20033;-85
2021/06/14 05:28:04;;;;;;;14.60;5.68;;;16.90;73.30;;;;;;5035875;28;20076;-85
2021/06/14 05:30:31;;;;;;;10.68;5.00;;;16.90;72.90;;;;;;5043812;28;20028;-85
2021/06/14 05:32:57;;;;;;;11.80;4.78;;;17.00;72.50;;;;;;5053201;28;20104;-84
2021/06/14 05:35:26;;;;;;;13.57;4.90;;;17.10;72.20;;;;;;5047363;28;20091;-86
2021/06/14 05:37:52;;;;;;;11.95;4.90;;;17.10;71.90;;;;;;5022575;28;20037;-84
2021/06/14 05:40:18;;;;;;;9.25;4.25;;;17.10;71.60;;;;;;5039257;28;20059;-85
2021/06/14 05:42:47;;;;;;;12.93;4.25;;;17.20;71.50;;;;;;5017686;28;20120;-85
2021/06/14 05:45:14;;;;;;;15.15;4.93;;;17.20;71.10;;;;;;5031963;28;20041;-85
2021/06/14 05:47:39;;;;;;;11.15;5.10;;;17.30;70.90;;;;;;5028645;28;20140;-85
2021/06/14 05:50:06;;;;;;;10.20;5.05;;;17.30;70.60;;;;;;5050522;28;20113;-85
2021/06/14 05:52:32;;;;;;;10.35;5.07;;;17.30;70.30;;;;;;5044180;28;20564;-85
2021/06/14 05:54:58;;;;;;;10.57;4.80;;;17.40;70.40;;;;;;5044819;28;20528;-85
2021/06/14 05:57:24;;;;;;;11.27;4.88;;;17.40;70.20;;;;;;5053991;28;20033;-86
2021/06/14 05:59:49;;;;;;;9.65;4.60;;;17.50;70.00;;;;;;5051216;28;20466;-87
2021/06/14 06:02:15;;;;;;;11.23;5.03;;;17.50;70.40;;;;;;5053581;28;20049;-87
2021/06/14 06:04:41;;;;;;;14.35;5.05;;;17.60;69.80;;;;;;5036015;28;20025;-86
2021/06/14 06:07:06;;;;;;;10.35;4.63;;;17.60;70.30;;;;;;5036443;28;20029;-87
2021/06/14 06:09:36;;;;;;;11.43;4.63;;;17.70;69.70;;;;;;5036196;28;20124;-84
2021/06/14 06:12:04;;;;;;;13.43;5.25;;;17.70;69.70;;;;;;5053599;28;20029;-84
2021/06/14 06:14:30;;;;;;;14.90;5.45;;;17.70;69.70;;;;;;5037416;28;20067;-83
2021/06/14 06:16:56;;;;;;;12.82;5.35;;;17.80;70.30;;;;;;5020641;28;20049;-84
2021/06/14 06:19:22;;;;;;;12.77;5.38;;;17.80;69.40;;;;;;5053354;28;20032;-83
2021/06/14 06:21:48;;;;;;;9.27;5.35;;;17.80;69.40;;;;;;5054505;28;20036;-83
2021/06/14 06:24:13;;;;;;;12.88;5.57;;;17.80;69.30;;;;;;5036966;28;20029;-83
2021/06/14 06:26:39;;;;;;;11.65;4.97;;;17.80;69.20;;;;;;5053453;28;20495;-83
2021/06/14 06:29:05;;;;;;;11.40;5.30;;;17.90;69.10;;;;;;5020259;28;20465;-83
2021/06/14 06:31:31;;;;;;;14.85;5.70;;;18.00;69.20;;;;;;5036566;28;20408;-84
2021/06/14 06:33:57;;;;;;;9.32;4.57;;;18.00;69.60;;;;;;5053107;28;20431;-83
2021/06/14 06:36:23;;;;;;;11.52;5.45;;;18.00;69.40;;;;;;5036307;28;20028;-84
2021/06/14 06:38:49;;;;;;;12.45;5.82;;;18.10;69.40;;;;;;5036773;28;20462;-84
2021/06/14 06:41:15;;;;;;;14.27;5.53;;;18.10;69.30;;;;;;5036671;28;20129;-84
2021/06/14 06:43:41;;;;;;;9.60;5.10;;;18.10;69.70;;;;;;5052532;28;20021;-84
2021/06/14 06:46:07;;;;;;;12.40;5.28;;;18.20;69.00;;;;;;5050738;28;20048;-84
2021/06/14 06:48:33;;;;;;;10.50;4.75;;;18.20;69.10;;;;;;5043139;28;20045;-84
2021/06/14 06:50:59;;;;;;;11.93;5.38;;;18.20;69.00;;;;;;5031865;28;20032;-82
2021/06/14 06:53:30;;;;;;;13.75;5.32;;;18.30;69.30;;;;;;5036671;28;20033;-83
2021/06/14 06:55:56;;;;;;;14.00;6.05;;;18.30;69.50;;;;;;5032753;28;20044;-84
2021/06/14 06:58:22;;;;;;;11.73;6.25;;;18.40;69.90;;;;;;5021410;28;20385;-83
2021/06/14 07:00:48;;;;;;;13.02;5.22;;;18.40;70.00;;;;;;5043589;28;20037;-84
2021/06/14 07:03:16;;;;;;;11.57;5.55;;;18.50;69.80;;;;;;5037227;28;20052;-84
2021/06/14 07:05:43;;;;;;;11.27;4.38;;;18.50;69.60;;;;;;5031317;28;20032;-85
2021/06/14 07:08:09;;;;;;;11.00;5.03;;;18.60;69.80;;;;;;5016051;28;20046;-87
2021/06/14 07:10:37;;;;;;;10.70;4.78;;;18.60;69.60;;;;;;5044143;28;20032;-83
2021/06/14 07:13:04;;;;;;;8.88;3.90;;;18.70;69.80;;;;;;5052157;28;20021;-82
2021/06/14 07:15:30;;;;;;;10.52;4.00;;;18.70;69.60;;;;;;5051665;28;20393;-83
2021/06/14 07:17:55;;;;;;;9.65;3.88;;;18.80;69.50;;;;;;5048895;28;20303;-85
2021/06/14 07:20:21;;;;;;;8.93;3.65;;;18.90;69.60;;;;;;5033427;28;20036;-85
2021/06/14 07:22:47;;;;;;;8.35;3.28;;;19.00;69.70;;;;;;5032298;28;20037;-87
2021/06/14 07:25:14;;;;;;;10.73;3.38;;;19.00;69.30;;;;;;5032731;28;20028;-85
2021/06/14 07:27:41;;;;;;;9.75;3.25;;;19.10;68.80;;;;;;5048665;28;20033;-87
2021/06/14 07:30:09;;;;;;;8.98;2.95;;;19.20;68.20;;;;;;5032374;28;20092;-87
2021/06/14 07:32:37;;;;;;;9.13;3.03;;;19.20;67.80;;;;;;5033840;28;20029;-88
2021/06/14 07:35:03;;;;;;;10.23;3.10;;;19.30;67.40;;;;;;5032708;28;20083;-86
2021/06/14 07:37:29;;;;;;;6.85;2.92;;;19.30;67.20;;;;;;5032075;28;20045;-85
2021/06/14 07:39:55;;;;;;;10.50;3.10;;;19.40;67.30;;;;;;5035933;28;20465;-85
2021/06/14 07:42:21;;;;;;;7.28;2.80;;;19.50;66.80;;;;;;5040390;28;20076;-84
2021/06/14 07:44:49;;;;;;;10.75;2.97;;;19.60;66.50;;;;;;5050742;28;20045;-83
2021/06/14 07:47:15;;;;;;;7.95;3.13;;;19.70;66.50;;;;;;5034511;28;20029;-83
2021/06/14 07:49:42;;;;;;;9.63;3.17;;;19.70;66.10;;;;;;5052125;28;20037;-82
2021/06/14 07:52:09;;;;;;;10.38;3.20;;;19.80;66.00;;;;;;5051947;28;20029;-83
2021/06/14 07:54:36;;;;;;;10.50;3.17;;;19.90;66.90;;;;;;5047688;28;20040;-84
2021/06/14 07:57:02;;;;;;;8.75;2.85;;;20.00;66.00;;;;;;5058895;28;20021;-86
2021/06/14 07:59:28;;;;;;;6.72;2.70;;;20.10;65.50;;;;;;5051253;28;20029;-84
2021/06/14 08:01:57;;;;;;;8.57;2.90;;;20.10;65.20;;;;;;5037124;28;20029;-88
2021/06/14 08:04:22;;;;;;;8.27;3.13;;;20.30;64.80;;;;;;5035592;28;20025;-87
2021/06/14 08:06:48;;;;;;;7.20;2.65;;;20.30;63.90;;;;;;5051458;28;20503;-83
2021/06/14 08:09:16;;;;;;;7.60;2.88;;;20.40;63.40;;;;;;5051035;28;20040;-82
2021/06/14 08:11:44;;;;;;;9.60;3.00;;;20.50;63.20;;;;;;5035168;28;20061;-80
2021/06/14 08:14:10;;;;;;;8.68;2.53;;;20.60;63.20;;;;;;5051591;28;20033;-83
2021/06/14 08:16:40;;;;;;;7.95;3.03;;;20.60;63.20;;;;;;5035192;28;20026;-82
2021/06/14 08:19:14;;;;;;;8.23;2.47;;;20.70;62.80;;;;;;5052815;28;20365;-81
2021/06/14 08:22:06;;;;;;;10.38;2.85;;;20.80;62.00;;;;;;5052433;28;20036;-82
2021/06/14 08:27:16;;;;;;;8.27;2.90;;;20.90;61.20;;;;;;5051654;28;20128;-79
2021/06/14 08:29:41;;;;;;;8.98;3.13;;;21.00;60.90;;;;;;5034692;28;20119;-79
2021/06/14 08:32:07;;;;;;;8.40;2.78;;;21.10;60.90;;;;;;5034827;28;20465;-78
2021/06/14 08:34:33;;;;;;;6.72;2.47;;;21.10;61.30;;;;;;5050835;28;20021;-79
2021/06/14 08:36:58;;;;;;;9.23;2.08;;;21.20;60.40;;;;;;5052171;28;20063;-81
2021/06/14 08:39:24;;;;;;;12.05;2.85;;;21.30;60.10;;;;;;5051131;28;20055;-80
2021/06/14 08:41:50;;;;;;;6.53;2.53;;;21.30;59.90;;;;;;5034817;28;20464;-80
2021/06/14 08:44:18;;;;;;;7.72;2.83;;;21.40;59.20;;;;;;5052070;28;20082;-80
2021/06/14 08:46:44;;;;;;;8.07;2.97;;;21.50;58.40;;;;;;5033690;28;20028;-80
2021/06/14 08:49:33;;;;;;;7.00;2.40;;;21.60;58.30;;;;;;5034070;28;20388;-81
2021/06/14 08:51:59;;;;;;;10.02;2.88;;;21.60;56.20;;;;;;5038589;28;20033;-80
2021/06/14 08:54:28;;;;;;;11.15;3.08;;;21.70;55.10;;;;;;5035999;28;20029;-80
2021/06/14 08:56:55;;;;;;;7.72;3.20;;;21.80;54.20;;;;;;5043757;28;20025;-80
2021/06/14 08:59:23;;;;;;;9.68;3.13;;;21.90;53.80;;;;;;5046596;28;20465;-81
2021/06/14 09:01:48;;;;;;;7.22;2.70;;;22.00;53.90;;;;;;5054279;28;20039;-80
2021/06/14 09:04:14;;;;;;;11.38;3.17;;;22.00;53.50;;;;;;5038021;28;20381;-80
2021/06/14 09:06:40;;;;;;;10.77;3.08;;;22.10;53.20;;;;;;5037923;28;20028;-84
2021/06/14 09:09:07;;;;;;;8.75;3.20;;;22.20;53.20;;;;;;5037999;28;20137;-81
2021/06/14 09:11:36;;;;;;;7.45;3.35;;;22.30;53.10;;;;;;5054143;28;20020;-82
2021/06/14 09:14:13;;;;;;;9.27;3.03;;;22.40;52.90;;;;;;5054343;28;20139;-82
2021/06/14 09:16:41;;;;;;;11.02;3.45;;;22.50;52.70;;;;;;5039526;28;20076;-83
2021/06/14 09:19:34;;;;;;;10.60;3.75;;;22.50;52.50;;;;;;5051561;28;20021;-84
2021/06/14 09:22:24;;;;;;;13.52;3.78;;;22.70;52.50;;;;;;5054153;28;20103;-82
2021/06/14 09:25:07;;;;;;;14.55;4.15;;;22.70;52.30;;;;;;5053579;28;20082;-83
2021/06/14 09:27:52;;;;;;;11.02;4.25;;;22.80;51.90;;;;;;5053956;28;20029;-83
2021/06/14 09:30:21;;;;;;;13.20;4.57;;;22.90;51.90;;;;;;5054361;28;20017;-83
2021/06/14 09:33:00;;;;;;;13.70;4.18;;;23.00;51.80;;;;;;5053622;28;20033;-83
2021/06/14 09:35:46;;;;;;;12.50;4.68;;;23.10;51.70;;;;;;5053570;28;20522;-84
2021/06/14 09:38:15;;;;;;;18.85;5.82;;;23.10;51.70;;;;;;5053377;28;20405;-85
2021/06/14 09:40:59;;;;;;;12.55;5.88;;;23.30;51.80;;;;;;5054862;28;20021;-86
2021/06/14 09:43:38;;;;;;;19.38;6.22;;;23.30;51.70;;;;;;5050315;28;20026;-83
2021/06/14 09:46:17;;;;;;;8.85;5.05;;;23.40;51.60;;;;;;5050162;28;20068;-83
2021/06/14 09:48:47;;;;;;;11.40;6.15;;;23.50;51.50;;;;;;5050337;28;20037;-85
2021/06/14 09:51:13;;;;;;;14.30;6.28;;;23.60;51.30;;;;;;5053270;28;20079;-84
2021/06/14 09:53:50;;;;;;;13.02;5.88;;;23.60;51.30;;;;;;5053496;28;20438;-82
2021/06/14 09:56:18;;;;;;;11.82;6.18;;;23.70;51.20;;;;;;5053767;28;20029;-83
2021/06/14 09:58:46;;;;;;;13.70;5.50;;;23.80;51.00;;;;;;5054986;28;20021;-82
2021/06/14 10:01:13;;;;;;;9.45;5.13;;;23.90;50.70;;;;;;5053454;28;20460;-82
2021/06/14 10:03:47;;;;;;;9.65;4.53;;;23.90;50.10;;;;;;5036365;28;20037;-82
2021/06/14 10:06:14;;;;;;;12.23;5.28;;;24.00;49.60;;;;;;5051502;28;20484;-81
2021/06/14 10:08:47;;;;;;;11.32;4.50;;;24.10;48.70;;;;;;5051709;28;20040;-84
2021/06/14 10:11:17;;;;;;;10.20;4.57;;;24.10;47.90;;;;;;5049722;28;20109;-83
2021/06/14 10:13:45;;;;;;;10.63;5.90;;;24.20;47.70;;;;;;5034667;28;20030;-82
2021/06/14 10:16:13;;;;;;;9.73;5.15;;;24.30;47.40;;;;;;5049465;28;20362;-83
2021/06/14 10:18:41;;;;;;;14.68;5.70;;;24.30;47.30;;;;;;5033345;28;20061;-83
2021/06/14 10:21:35;;;;;;;13.65;5.03;;;24.30;47.10;;;;;;5033750;28;20048;-84
2021/06/14 10:24:07;;;;;;;10.88;5.25;;;24.40;47.10;;;;;;5034417;28;20090;-84
2021/06/14 10:26:36;;;;;;;10.60;5.00;;;24.50;47.10;;;;;;5050903;28;20055;-83
2021/06/14 10:29:06;;;;;;;17.05;6.35;;;24.60;46.60;;;;;;5047412;28;20036;-84
2021/06/14 10:31:34;;;;;;;11.52;5.68;;;24.70;46.00;;;;;;5042612;28;20064;-83
2021/06/14 10:34:01;;;;;;;11.82;5.55;;;24.90;46.10;;;;;;5049504;28;20017;-83
2021/06/14 10:36:39;;;;;;;9.18;4.25;;;25.20;45.90;;;;;;5022356;28;20033;-84
2021/06/14 10:39:05;;;;;;;8.85;4.65;;;25.40;45.70;;;;;;5034261;28;20018;-82
2021/06/14 10:41:40;;;;;;;11.60;4.68;;;25.60;45.00;;;;;;5033378;28;20033;-85
2021/06/14 10:44:06;;;;;;;14.65;4.47;;;25.80;44.30;;;;;;5049321;28;20021;-84
2021/06/14 10:46:40;;;;;;;11.23;3.97;;;26.00;44.00;;;;;;5049112;28;20049;-83
2021/06/14 10:49:12;;;;;;;10.52;4.70;;;26.30;43.80;;;;;;5034117;28;20084;-83
2021/06/14 10:51:45;;;;;;;11.40;4.68;;;26.60;43.30;;;;;;5033765;28;20079;-84
2021/06/14 10:54:15;;;;;;;11.95;4.10;;;27.00;42.50;;;;;;5033176;28;20054;-84
2021/06/14 10:57:03;;;;;;;10.70;3.88;;;27.40;42.40;;;;;;5049175;28;20025;-85
2021/06/14 10:59:37;;;;;;;7.47;3.95;;;27.90;41.90;;;;;;5032123;28;20025;-84
2021/06/14 11:02:11;;;;;;;8.38;3.92;;;28.30;41.00;;;;;;5048713;28;20038;-84
2021/06/14 11:04:37;;;;;;;9.32;3.92;;;28.80;41.10;;;;;;5016498;28;20045;-83
2021/06/14 11:07:06;;;;;;;9.27;3.22;;;29.30;40.90;;;;;;5032252;28;20440;-84
2021/06/14 11:09:43;;;;;;;7.43;3.47;;;29.80;40.50;;;;;;4999209;28;20409;-86
2021/06/14 11:12:11;;;;;;;12.95;3.63;;;30.50;40.00;;;;;;5031553;28;20041;-85
2021/06/14 11:14:38;;;;;;;7.43;4.07;;;31.00;39.30;;;;;;5031183;28;20385;-84
2021/06/14 11:17:31;;;;;;;10.10;4.00;;;31.60;39.00;;;;;;5031318;28;20458;-83
2021/06/14 11:20:00;;;;;;;;;;;32.20;37.10;;;;;;5032684;28;20044;-85
2021/06/14 11:22:44;;;;;;;7.32;4.28;;;32.60;37.20;;;;;;5032121;28;19944;-83
2021/06/14 11:25:29;;;;;;;8.45;3.75;;;33.00;36.80;;;;;;5033524;28;20033;-83
2021/06/14 11:27:57;;;;;;;8.48;3.80;;;33.60;36.10;;;;;;5032295;28;20362;-83
2021/06/14 11:30:34;;;;;;;10.02;3.50;;;34.20;36.70;;;;;;5032310;28;20060;-84
2021/06/14 11:33:01;;;;;;;7.15;3.58;;;34.60;34.60;;;;;;5031759;28;20444;-83
2021/06/14 11:35:29;;;;;;;5.43;2.92;;;34.80;34.20;;;;;;5031424;28;20037;-85
2021/06/14 11:37:59;;;;;;;8.52;3.38;;;35.30;34.30;;;;;;5031951;28;20185;-82
2021/06/14 11:40:31;;;;;;;6.72;2.90;;;35.60;33.40;;;;;;5031860;28;20033;-82
2021/06/14 11:43:09;;;;;;;8.52;3.80;;;35.80;33.00;;;;;;5032050;28;20068;-84
2021/06/14 11:45:38;;;;;;;6.53;3.10;;;36.00;32.80;;;;;;5031783;28;20132;-84
2021/06/14 11:48:18;;;;;;;7.07;2.90;;;36.40;33.10;;;;;;5031766;28;20072;-84
2021/06/14 11:50:44;;;;;;;6.95;2.72;;;36.60;32.50;;;;;;5032035;28;20022;-86
2021/06/14 11:53:10;;;;;;;7.45;2.50;;;36.90;32.30;;;;;;5049738;28;20090;-86
2021/06/14 11:55:40;;;;;;;5.88;2.28;;;37.00;31.80;;;;;;5023487;28;20026;-85
2021/06/14 11:58:08;;;;;;;6.22;2.00;;;37.00;31.80;;;;;;5033220;28;20124;-85
2021/06/14 12:00:39;;;;;;;6.05;1.90;;;36.90;31.50;;;;;;5033102;28;20029;-84
2021/06/14 12:03:25;;;;;;;4.67;2.23;;;36.70;31.70;;;;;;5031534;28;20036;-88
2021/06/14 12:05:53;;;;;;;6.85;2.30;;;36.60;31.50;;;;;;5014828;28;20033;-85
2021/06/14 12:08:24;;;;;;;9.13;3.03;;;36.50;31.60;;;;;;5031804;28;20037;-84
2021/06/14 12:10:55;;;;;;;5.68;2.00;;;36.50;31.50;;;;;;5031395;28;20032;-82
2021/06/14 12:13:22;;;;;;;6.72;2.28;;;36.50;31.70;;;;;;5032536;28;20033;-82
2021/06/14 12:15:51;;;;;;;6.18;2.75;;;36.40;31.30;;;;;;5031472;28;20033;-83
2021/06/14 12:18:18;;;;;;;6.43;2.47;;;36.30;31.30;;;;;;5014799;28;20045;-85
2021/06/14 12:20:49;;;;;;;4.60;1.90;;;36.20;31.40;;;;;;5033423;28;20489;-85
2021/06/14 12:23:16;;;;;;;7.60;2.80;;;36.20;31.40;;;;;;5050052;28;20488;-85
2021/06/14 12:25:45;;;;;;;5.78;2.42;;;36.00;31.30;;;;;;5051497;28;20460;-84
2021/06/14 12:28:13;;;;;;;7.32;3.00;;;36.00;31.40;;;;;;5054284;28;20469;-85
2021/06/14 12:30:40;;;;;;;6.25;2.63;;;35.90;31.50;;;;;;5055552;28;20056;-86
2021/06/14 12:33:06;;;;;;;5.60;2.22;;;35.80;31.40;;;;;;5038365;28;20519;-86
2021/06/14 12:35:32;;;;;;;7.43;2.40;;;35.90;31.40;;;;;;5055409;28;20057;-88
2021/06/14 12:38:07;;;;;;;5.88;2.13;;;35.90;31.50;;;;;;5038994;28;20043;-88
2021/06/14 12:40:35;;;;;;;4.97;2.17;;;36.00;31.60;;;;;;5056556;28;20025;-81
2021/06/14 12:43:04;;;;;;;5.70;1.90;;;36.20;31.50;;;;;;5050539;28;20020;-87
2021/06/14 12:45:30;;;;;;;6.32;2.28;;;36.20;31.30;;;;;;5044031;28;20444;-85
2021/06/14 12:48:03;;;;;;;4.45;1.80;;;36.30;31.40;;;;;;5022182;28;20045;-82
2021/06/14 12:50:31;;;;;;;5.90;2.40;;;36.30;31.10;;;;;;5034726;28;20032;-83
2021/06/14 12:52:58;;;;;;;5.30;1.88;;;36.40;31.30;;;;;;5054645;28;20119;-83
2021/06/14 12:55:27;;;;;;;7.68;2.53;;;36.50;31.40;;;;;;5038049;28;20087;-83